Time;durP1;ratioP1;P1;durP2;ratioP2;P2;SDS_P1;SDS_P2;PMS_P1;PMS_P2;Temp;Humidity;BMP_temperature;BMP_pressure;BME280_temperature;BME280_humidity;BME280_pressure;Samples;Min_cycle;Max_cycle;Signal;HPM_P1;HPM_P2
2022/03/15 00:01:31;;;;;;;20.40;9.10;;;;;;;7.68;100.00;102458.53;5084865;28;20059;-72
2022/03/15 00:03:58;;;;;;;21.88;9.65;;;;;;;7.70;100.00;102459.00;5089102;28;20047;-71
2022/03/15 00:06:25;;;;;;;24.42;9.20;;;;;;;7.63;100.00;102451.25;5088429;28;20056;-72
2022/03/15 00:08:52;;;;;;;21.83;10.13;;;;;;;7.62;100.00;102454.34;5096016;28;20143;-74
2022/03/15 00:11:21;;;;;;;25.80;10.43;;;;;;;7.62;100.00;102457.09;5088193;28;20412;-71
2022/03/15 00:13:48;;;;;;;22.63;10.82;;;;;;;7.56;100.00;102452.97;5089196;28;20055;-73
2022/03/15 00:16:15;;;;;;;26.48;11.25;;;;;;;7.56;100.00;102451.00;5087703;28;20127;-72
2022/03/15 00:18:42;;;;;;;24.88;11.40;;;;;;;7.53;100.00;102445.38;5085760;28;20052;-71
2022/03/15 00:21:10;;;;;;;22.10;10.30;;;;;;;7.46;100.00;102445.88;5090044;28;20051;-73
2022/03/15 00:23:38;;;;;;;22.60;10.45;;;;;;;7.50;100.00;102455.09;5092680;28;20047;-72
2022/03/15 00:26:10;;;;;;;22.55;10.82;;;;;;;7.46;100.00;102454.13;5092532;28;20044;-72
2022/03/15 00:28:37;;;;;;;24.20;11.43;;;;;;;7.37;100.00;102463.59;5086018;28;20054;-72
2022/03/15 00:31:04;;;;;;;25.25;10.45;;;;;;;7.34;100.00;102459.59;5088231;28;20770;-74
2022/03/15 00:33:31;;;;;;;24.08;11.40;;;;;;;7.34;100.00;102456.00;5094646;28;20105;-72
2022/03/15 00:35:59;;;;;;;20.75;9.45;;;;;;;7.38;100.00;102455.03;5082043;28;20052;-72
2022/03/15 00:38:27;;;;;;;17.83;8.95;;;;;;;7.39;100.00;102455.84;5086366;28;20056;-72
2022/03/15 00:40:54;;;;;;;24.33;10.48;;;;;;;7.38;100.00;102456.94;5093568;28;20051;-75
2022/03/15 00:43:21;;;;;;;20.42;10.73;;;;;;;7.37;100.00;102455.34;5089986;28;20095;-71
2022/03/15 00:45:47;;;;;;;23.58;10.50;;;;;;;7.33;100.00;102443.41;5087161;28;20178;-72
2022/03/15 00:48:14;;;;;;;22.45;11.02;;;;;;;7.34;100.00;102456.00;5094517;28;20048;-71
2022/03/15 00:50:41;;;;;;;24.40;10.80;;;;;;;7.30;100.00;102446.81;5084189;28;20047;-71
2022/03/15 00:53:10;;;;;;;23.05;11.55;;;;;;;7.24;100.00;102446.19;5083430;28;20475;-71
2022/03/15 00:55:37;;;;;;;26.50;11.13;;;;;;;7.24;100.00;102450.88;5081288;28;20134;-71
2022/03/15 00:58:05;;;;;;;25.55;11.25;;;;;;;7.25;100.00;102447.00;5083744;28;20155;-72
2022/03/15 01:00:32;;;;;;;24.67;11.18;;;;;;;7.22;100.00;102455.91;5083021;28;20740;-71
2022/03/15 01:02:59;;;;;;;25.10;11.75;;;;;;;7.20;100.00;102442.50;5085998;28;20143;-71
2022/03/15 01:05:26;;;;;;;23.08;10.90;;;;;;;7.19;100.00;102442.84;5080056;28;20118;-72
2022/03/15 01:07:52;;;;;;;21.33;11.00;;;;;;;7.13;100.00;102433.94;5082268;28;20526;-72
2022/03/15 01:10:19;;;;;;;21.65;10.82;;;;;;;7.11;100.00;102439.00;5083635;28;20159;-72
2022/03/15 01:12:45;;;;;;;25.85;11.65;;;;;;;7.10;100.00;102436.56;5084446;28;20059;-72
2022/03/15 01:15:12;;;;;;;23.73;11.90;;;;;;;7.09;100.00;102434.97;5079821;28;20070;-72
2022/03/15 01:17:39;;;;;;;24.45;11.10;;;;;;;7.07;100.00;102438.03;5081776;28;20575;-76
2022/03/15 01:20:08;;;;;;;22.90;9.82;;;;;;;7.14;100.00;102429.25;5087245;28;20079;-72
2022/03/15 01:22:34;;;;;;;27.75;11.55;;;;;;;7.15;100.00;102428.09;5088931;28;20048;-71
2022/03/15 01:25:01;;;;;;;22.52;10.32;;;;;;;7.12;100.00;102423.28;5087652;28;20055;-72
2022/03/15 01:27:27;;;;;;;22.85;10.55;;;;;;;7.09;100.00;102418.44;5085831;28;20071;-72
2022/03/15 01:29:54;;;;;;;21.52;10.85;;;;;;;7.06;100.00;102417.13;5087253;28;20131;-73
2022/03/15 01:32:20;;;;;;;29.95;13.57;;;;;;;7.00;100.00;102410.22;5084703;28;20043;-72
2022/03/15 01:34:47;;;;;;;25.25;12.05;;;;;;;6.99;100.00;102408.59;5086326;28;20565;-74
2022/03/15 01:37:14;;;;;;;22.58;11.30;;;;;;;6.90;100.00;102416.13;5087404;28;20450;-72
2022/03/15 01:39:40;;;;;;;27.77;12.93;;;;;;;6.87;100.00;102418.72;5086832;28;20131;-72
2022/03/15 01:42:07;;;;;;;29.00;13.10;;;;;;;6.89;100.00;102419.19;5087033;28;20141;-73
2022/03/15 01:44:34;;;;;;;27.40;12.38;;;;;;;6.90;100.00;102418.06;5085644;28;20135;-75
2022/03/15 01:47:01;;;;;;;25.25;11.63;;;;;;;6.91;100.00;102420.47;5085141;28;20084;-72
2022/03/15 01:49:28;;;;;;;25.77;12.35;;;;;;;6.92;100.00;102418.53;5086575;28;20471;-72
2022/03/15 01:51:55;;;;;;;26.55;12.32;;;;;;;6.91;100.00;102417.72;5086496;28;20059;-72
2022/03/15 01:54:22;;;;;;;23.45;11.13;;;;;;;6.88;100.00;102412.06;5087607;28;20052;-74
2022/03/15 01:56:49;;;;;;;27.98;12.32;;;;;;;6.91;100.00;102403.16;5074852;28;20048;-72
2022/03/15 01:59:16;;;;;;;24.00;12.20;;;;;;;6.91;100.00;102414.16;5085402;28;20674;-72
2022/03/15 02:01:43;;;;;;;25.90;12.10;;;;;;;6.89;100.00;102399.94;5087423;28;20177;-73
2022/03/15 02:04:11;;;;;;;23.90;11.27;;;;;;;6.88;100.00;102410.13;5087166;28;20448;-74
2022/03/15 02:06:39;;;;;;;24.80;11.55;;;;;;;6.85;100.00;102399.78;5088540;28;20051;-73
2022/03/15 02:09:13;;;;;;;25.60;11.70;;;;;;;6.89;100.00;102403.47;5103707;28;20045;-72
2022/03/15 02:11:42;;;;;;;30.52;12.43;;;;;;;6.88;100.00;102407.38;5091399;28;20416;-72
2022/03/15 02:14:09;;;;;;;26.23;11.57;;;;;;;6.81;100.00;102407.09;5091342;28;21841;-74
2022/03/15 02:16:35;;;;;;;26.25;12.55;;;;;;;6.81;100.00;102403.53;5090160;28;20051;-72
2022/03/15 02:19:04;;;;;;;26.75;12.45;;;;;;;6.78;100.00;102401.47;5090626;28;20067;-72
2022/03/15 02:21:31;;;;;;;23.67;11.80;;;;;;;6.77;100.00;102400.63;5090961;28;20052;-74
2022/03/15 02:23:58;;;;;;;29.50;13.48;;;;;;;6.73;100.00;102401.63;5086735;28;20138;-72
2022/03/15 02:26:25;;;;;;;25.73;12.10;;;;;;;6.73;100.00;102394.19;5091265;28;20634;-72
2022/03/15 02:28:51;;;;;;;24.60;11.18;;;;;;;6.72;100.00;102392.56;5090357;28;20063;-72
2022/03/15 02:31:19;;;;;;;30.45;12.60;;;;;;;6.71;100.00;102392.88;5090790;28;20083;-73
2022/03/15 02:33:47;;;;;;;31.27;11.85;;;;;;;6.71;100.00;102392.88;5091530;28;20114;-72
2022/03/15 02:36:15;;;;;;;25.00;11.70;;;;;;;6.68;100.00;102390.81;5091420;28;20131;-72
2022/03/15 02:38:46;;;;;;;32.72;12.68;;;;;;;6.66;100.00;102387.59;5089812;28;20109;-72
2022/03/15 02:41:14;;;;;;;26.55;11.45;;;;;;;6.64;100.00;102382.41;5091568;28;20058;-72
2022/03/15 02:43:42;;;;;;;22.33;10.77;;;;;;;6.62;100.00;102378.38;5093297;28;20056;-74
2022/03/15 02:46:10;;;;;;;25.75;12.13;;;;;;;6.59;100.00;102374.34;5092472;28;20058;-71
2022/03/15 02:48:36;;;;;;;28.55;12.02;;;;;;;6.59;100.00;102377.09;5091412;28;20058;-72
2022/03/15 02:51:08;;;;;;;23.33;11.40;;;;;;;6.61;100.00;102374.03;5089818;28;20056;-72
2022/03/15 02:53:36;;;;;;;25.35;12.23;;;;;;;6.58;100.00;102374.69;5090956;28;20058;-72
2022/03/15 02:56:12;;;;;;;28.35;11.65;;;;;;;6.56;100.00;102366.75;5088440;28;20221;-72
2022/03/15 02:58:40;;;;;;;27.52;12.50;;;;;;;6.54;100.00;102362.72;5088042;28;20052;-72
2022/03/15 03:01:07;;;;;;;24.65;11.50;;;;;;;6.51;100.00;102363.41;5082752;28;20055;-72
2022/03/15 03:03:35;;;;;;;23.52;10.75;;;;;;;6.52;100.00;102365.00;5089324;28;20056;-73
2022/03/15 03:06:02;;;;;;;24.95;11.75;;;;;;;6.48;100.00;102362.09;5083605;28;20135;-72
2022/03/15 03:08:30;;;;;;;26.98;12.98;;;;;;;6.50;100.00;102364.50;5094404;28;20101;-73
2022/03/15 03:10:58;;;;;;;24.05;12.80;;;;;;;6.47;100.00;102344.00;5089290;28;20073;-74
2022/03/15 03:13:26;;;;;;;25.13;12.27;;;;;;;6.49;100.00;102347.22;5089902;28;20086;-71
2022/03/15 03:15:59;;;;;;;23.38;11.35;;;;;;;6.50;100.00;102356.25;5089446;28;20055;-73
2022/03/15 03:18:28;;;;;;;29.38;11.63;;;;;;;6.52;100.00;102343.78;5089524;28;20106;-71
2022/03/15 03:20:55;;;;;;;28.55;12.18;;;;;;;6.53;100.00;102344.59;5088179;28;20135;-72
2022/03/15 03:23:22;;;;;;;27.33;11.70;;;;;;;6.50;100.00;102331.50;5088705;28;20487;-71
2022/03/15 03:25:48;;;;;;;25.67;11.88;;;;;;;6.51;100.00;102333.16;5089509;28;20139;-72
2022/03/15 03:28:15;;;;;;;25.88;13.23;;;;;;;6.49;100.00;102338.16;5087990;28;20428;-71
2022/03/15 03:30:46;;;;;;;22.50;12.13;;;;;;;6.49;100.00;102329.91;5089231;28;20056;-72
2022/03/15 03:33:14;;;;;;;24.65;13.63;;;;;;;6.47;100.00;102327.50;5089935;28;20566;-71
2022/03/15 03:35:43;;;;;;;24.20;12.57;;;;;;;6.48;100.00;102331.06;5088715;28;20052;-71
2022/03/15 03:38:11;;;;;;;26.50;13.20;;;;;;;6.45;100.00;102337.22;5089555;28;20073;-72
2022/03/15 03:40:38;;;;;;;27.25;14.10;;;;;;;6.43;100.00;102325.72;5089189;28;20105;-75
2022/03/15 03:43:05;;;;;;;26.52;14.32;;;;;;;6.44;100.00;102338.31;5088640;28;20143;-71
2022/03/15 03:45:32;;;;;;;29.65;15.05;;;;;;;6.42;100.00;102327.69;5088480;28;20079;-75
2022/03/15 03:47:58;;;;;;;28.40;15.32;;;;;;;6.42;100.00;102326.88;5087391;28;20108;-72
2022/03/15 03:50:25;;;;;;;28.92;14.82;;;;;;;6.44;100.00;102330.06;5088555;28;20043;-72
2022/03/15 03:52:51;;;;;;;27.73;13.95;;;;;;;6.45;100.00;102327.00;5088936;28;20050;-72
2022/03/15 03:55:18;;;;;;;25.80;14.07;;;;;;;6.47;100.00;102335.72;5087402;28;20052;-72
2022/03/15 03:57:45;;;;;;;25.25;12.95;;;;;;;6.46;100.00;102327.81;5087395;28;20094;-72
2022/03/15 04:00:12;;;;;;;24.30;13.73;;;;;;;6.44;100.00;102324.56;5086621;28;20066;-73
2022/03/15 04:02:39;;;;;;;25.77;13.45;;;;;;;6.46;100.00;102317.63;5087626;28;20131;-71
2022/03/15 04:05:06;;;;;;;22.98;13.02;;;;;;;6.46;100.00;102316.81;5087273;28;20402;-71
2022/03/15 04:07:34;;;;;;;27.10;13.15;;;;;;;6.46;100.00;102314.06;5092156;28;20134;-72
2022/03/15 04:10:05;;;;;;;23.35;12.63;;;;;;;6.45;100.00;102323.47;5094429;28;20079;-73
2022/03/15 04:12:33;;;;;;;22.92;12.60;;;;;;;6.44;100.00;102321.81;5086713;28;20059;-72
2022/03/15 04:15:00;;;;;;;26.35;12.85;;;;;;;6.46;100.00;102333.31;5088943;28;20052;-72
2022/03/15 04:17:26;;;;;;;28.80;13.55;;;;;;;6.42;100.00;102326.88;5089254;28;20131;-72
2022/03/15 04:19:53;;;;;;;26.75;14.32;;;;;;;6.43;100.00;102326.53;5088098;28;20074;-73
2022/03/15 04:22:20;;;;;;;26.60;14.15;;;;;;;6.41;100.00;102325.25;5088162;28;20133;-71
2022/03/15 04:24:49;;;;;;;30.45;13.13;;;;;;;6.45;100.00;102331.72;5089043;28;20048;-72
2022/03/15 04:27:16;;;;;;;22.98;12.02;;;;;;;6.48;100.00;102325.56;5087702;28;20136;-72
2022/03/15 04:29:42;;;;;;;27.13;12.65;;;;;;;6.48;100.00;102325.56;5087828;28;20132;-71
2022/03/15 04:32:09;;;;;;;26.67;13.38;;;;;;;6.46;100.00;102338.81;5087903;28;20054;-72
2022/03/15 04:34:38;;;;;;;29.80;13.85;;;;;;;6.46;100.00;102330.56;5087102;28;20054;-73
2022/03/15 04:37:05;;;;;;;25.02;13.07;;;;;;;6.48;100.00;102342.06;5088340;28;20044;-72
2022/03/15 04:39:33;;;;;;;25.15;12.90;;;;;;;6.49;100.00;102343.66;5088170;28;20079;-73
2022/03/15 04:41:59;;;;;;;23.77;12.40;;;;;;;6.49;100.00;102336.22;5087492;28;20591;-72
2022/03/15 04:44:26;;;;;;;27.30;12.95;;;;;;;6.41;100.00;102326.06;5088258;28;20170;-71
2022/03/15 04:46:52;;;;;;;28.38;13.85;;;;;;;6.48;100.00;102331.84;5087294;28;20406;-73
2022/03/15 04:49:19;;;;;;;28.02;13.32;;;;;;;6.48;100.00;102331.06;5086585;28;20048;-72
2022/03/15 04:51:46;;;;;;;25.10;11.95;;;;;;;6.45;100.00;102327.00;5087404;28;20056;-72
2022/03/15 04:54:13;;;;;;;25.45;12.02;;;;;;;6.46;100.00;102330.56;5086299;28;20438;-72
2022/03/15 04:56:39;;;;;;;27.33;13.32;;;;;;;6.41;100.00;102326.06;5088175;28;20048;-71
2022/03/15 04:59:06;;;;;;;24.55;12.70;;;;;;;6.42;100.00;102324.13;5087637;28;20059;-72
2022/03/15 05:01:32;;;;;;;25.75;11.70;;;;;;;6.44;100.00;102319.06;5087196;28;20087;-72
2022/03/15 05:04:00;;;;;;;26.17;12.20;;;;;;;6.47;100.00;102318.41;5083920;28;20528;-72
2022/03/15 05:06:27;;;;;;;31.13;12.95;;;;;;;6.46;100.00;102312.13;5087060;28;20074;-72
2022/03/15 05:08:54;;;;;;;25.65;12.52;;;;;;;6.42;100.00;102318.63;5093704;28;20046;-72
2022/03/15 05:11:20;;;;;;;31.17;12.93;;;;;;;6.41;100.00;102314.28;5087348;28;20044;-70
2022/03/15 05:13:48;;;;;;;25.13;13.23;;;;;;;6.43;100.00;102317.47;5087035;28;20052;-71
2022/03/15 05:16:18;;;;;;;30.35;13.43;;;;;;;6.44;100.00;102310.81;5086465;28;20056;-71
2022/03/15 05:18:46;;;;;;;24.48;12.10;;;;;;;6.46;100.00;102308.56;5086359;28;20055;-71
2022/03/15 05:21:16;;;;;;;24.92;12.55;;;;;;;6.44;100.00;102310.81;5085746;28;20486;-71
2022/03/15 05:23:44;;;;;;;28.92;13.43;;;;;;;6.46;100.00;102314.06;5082920;28;20048;-71
2022/03/15 05:26:12;;;;;;;29.42;12.88;;;;;;;6.43;100.00;102298.22;5086718;28;20151;-71
2022/03/15 05:28:38;;;;;;;27.02;12.18;;;;;;;6.43;100.00;102292.72;5087781;28;20048;-71
2022/03/15 05:31:06;;;;;;;29.58;13.63;;;;;;;6.44;100.00;102305.34;5085623;28;20075;-73
2022/03/15 05:33:33;;;;;;;25.20;13.20;;;;;;;6.43;100.00;102301.78;5085944;28;20056;-71
2022/03/15 05:36:00;;;;;;;31.80;13.35;;;;;;;6.42;100.00;102299.38;5087331;28;20052;-73
2022/03/15 05:38:27;;;;;;;29.20;13.25;;;;;;;6.42;100.00;102293.88;5087523;28;20123;-72
2022/03/15 05:40:54;;;;;;;26.58;11.98;;;;;;;6.40;100.00;102298.88;5087066;28;20052;-73
2022/03/15 05:43:41;;;;;;;29.13;12.40;;;;;;;6.39;100.00;102300.03;5090139;28;20075;-72
2022/03/15 05:46:07;;;;;;;29.60;13.15;;;;;;;6.36;100.00;102301.50;5091971;28;20052;-71
2022/03/15 05:48:34;;;;;;;31.70;13.23;;;;;;;6.38;100.00;102298.44;5091385;28;20056;-71
2022/03/15 05:51:01;;;;;;;27.45;13.05;;;;;;;6.38;100.00;102296.47;5091854;28;20075;-72
2022/03/15 05:53:27;;;;;;;26.67;12.27;;;;;;;6.40;100.00;102291.44;5092664;28;20048;-72
2022/03/15 05:55:54;;;;;;;26.00;11.77;;;;;;;6.38;100.00;102290.97;5091866;28;20477;-73
2022/03/15 05:58:20;;;;;;;22.83;10.95;;;;;;;6.45;100.00;102293.22;5091479;28;20052;-71
2022/03/15 06:00:47;;;;;;;28.65;12.95;;;;;;;6.46;100.00;102292.06;5090688;28;20696;-73
2022/03/15 06:03:14;;;;;;;29.23;13.30;;;;;;;6.47;100.00;102290.91;5090838;28;20076;-72
2022/03/15 06:05:40;;;;;;;30.55;13.55;;;;;;;6.45;100.00;102298.72;5086670;28;20043;-71
2022/03/15 06:08:08;;;;;;;33.80;15.18;;;;;;;6.40;100.00;102296.13;5097318;28;20045;-72
2022/03/15 06:10:35;;;;;;;33.33;14.65;;;;;;;6.41;100.00;102286.78;5090634;28;20411;-72
2022/03/15 06:13:02;;;;;;;27.60;12.70;;;;;;;6.40;100.00;102288.72;5090972;28;20056;-72
2022/03/15 06:15:28;;;;;;;25.33;11.93;;;;;;;6.47;100.00;102290.91;5091420;28;20458;-71
2022/03/15 06:17:57;;;;;;;36.42;12.90;;;;;;;6.48;100.00;102298.84;5090662;28;20056;-73
2022/03/15 06:20:25;;;;;;;27.67;13.80;;;;;;;6.50;100.00;102288.34;5091843;28;20052;-72
2022/03/15 06:22:52;;;;;;;23.88;11.93;;;;;;;6.51;100.00;102291.91;5089506;28;20182;-72
2022/03/15 06:25:19;;;;;;;25.75;12.15;;;;;;;6.57;100.00;102298.78;5088864;28;20052;-71
2022/03/15 06:27:47;;;;;;;35.45;19.40;;;;;;;6.59;100.00;102300.09;5091174;28;20110;-72
2022/03/15 06:30:16;;;;;;;30.50;13.45;;;;;;;6.63;100.00;102294.72;5090141;28;20106;-74
2022/03/15 06:32:43;;;;;;;26.40;12.60;;;;;;;6.64;100.00;102297.16;5090658;28;20151;-73
2022/03/15 06:35:12;;;;;;;28.48;14.20;;;;;;;6.65;100.00;102289.72;5090689;28;20059;-72
2022/03/15 06:37:45;;;;;;;25.90;13.15;;;;;;;6.67;100.00;102287.41;5089939;28;20086;-72
2022/03/15 06:40:14;;;;;;;26.23;12.85;;;;;;;6.71;100.00;102280.09;5090385;28;20052;-71
2022/03/15 06:42:43;;;;;;;27.73;12.30;;;;;;;6.74;100.00;102290.44;5089559;28;20116;-73
2022/03/15 06:45:10;;;;;;;27.40;13.30;;;;;;;6.72;100.00;102278.97;5088659;28;20083;-73
2022/03/15 06:47:38;;;;;;;23.83;11.52;;;;;;;6.79;100.00;102282.78;5091606;28;20048;-74
2022/03/15 06:50:08;;;;;;;24.52;11.50;;;;;;;6.83;100.00;102277.44;5088802;28;20138;-73
2022/03/15 06:52:36;;;;;;;24.70;11.63;;;;;;;6.86;100.00;102276.78;5087143;28;20059;-73
2022/03/15 06:55:03;;;;;;;28.63;13.20;;;;;;;6.91;100.00;102285.63;5100116;28;20071;-73
2022/03/15 06:57:31;;;;;;;33.15;11.95;;;;;;;6.94;100.00;102275.91;5090849;28;20080;-74
2022/03/15 06:59:59;;;;;;;21.90;11.75;;;;;;;6.97;100.00;102273.28;5090760;28;20078;-73
2022/03/15 07:02:29;;;;;;;24.80;12.15;;;;;;;7.04;100.00;102281.00;5088753;28;20152;-72
2022/03/15 07:04:56;;;;;;;29.92;13.38;;;;;;;7.08;100.00;102273.69;5081736;28;20056;-73
2022/03/15 07:07:23;;;;;;;31.73;12.82;;;;;;;7.13;100.00;102276.25;5094221;28;20130;-73
2022/03/15 07:09:49;;;;;;;26.40;13.68;;;;;;;7.16;100.00;102283.84;5097797;28;20062;-74
2022/03/15 07:12:16;;;;;;;34.60;15.85;;;;;;;7.21;100.00;102284.44;5089733;28;20055;-73
2022/03/15 07:14:43;;;;;;;35.50;15.80;;;;;;;7.26;100.00;102286.97;5088288;28;20132;-73
2022/03/15 07:17:10;;;;;;;30.90;14.10;;;;;;;7.31;100.00;102280.44;5089242;28;20070;-76
2022/03/15 07:19:36;;;;;;;39.17;17.05;;;;;;;7.37;100.00;102279.09;5089641;28;20059;-72
2022/03/15 07:22:05;;;;;;;34.53;17.77;;;;;;;7.43;100.00;102275.78;5088771;28;20056;-72
2022/03/15 07:24:34;;;;;;;34.35;18.08;;;;;;;7.47;100.00;102267.66;5091345;28;20129;-74
2022/03/15 07:27:01;;;;;;;36.30;15.32;;;;;;;7.52;100.00;102271.00;5085015;28;20040;-73
2022/03/15 07:29:28;;;;;;;31.05;15.55;;;;;;;7.57;100.00;102259.75;5088309;28;20131;-72
2022/03/15 07:31:56;;;;;;;29.63;14.13;;;;;;;7.61;100.00;102257.97;5093908;28;20126;-72
2022/03/15 07:34:23;;;;;;;34.08;15.90;;;;;;;7.68;100.00;102260.16;5088447;28;20052;-73
2022/03/15 07:36:50;;;;;;;29.23;13.70;;;;;;;7.73;100.00;102254.44;5088256;28;20146;-72
2022/03/15 07:39:17;;;;;;;28.45;13.10;;;;;;;7.79;100.00;102259.38;5089958;28;20039;-73
2022/03/15 07:41:44;;;;;;;26.45;12.95;;;;;;;7.83;100.00;102259.47;5088610;28;20139;-72
2022/03/15 07:44:10;;;;;;;26.77;11.90;;;;;;;7.88;100.00;102257.34;5089819;28;20052;-72
2022/03/15 07:46:38;;;;;;;23.10;11.48;;;;;;;7.93;100.00;102250.78;5089277;28;20052;-72
2022/03/15 07:49:07;;;;;;;27.45;12.45;;;;;;;8.02;100.00;102248.72;5098452;28;20058;-71
2022/03/15 07:51:34;;;;;;;26.05;12.20;;;;;;;8.09;100.00;102256.44;5089688;28;20052;-72
2022/03/15 07:54:01;;;;;;;26.13;12.82;;;;;;;8.11;100.00;102246.69;5089416;28;20048;-71
2022/03/15 07:56:27;;;;;;;25.48;11.77;;;;;;;8.18;100.00;102244.16;5089002;28;20066;-73
2022/03/15 07:58:54;;;;;;;28.15;11.95;;;;;;;8.22;100.00;102230.50;5088679;28;20048;-73
2022/03/15 08:01:20;;;;;;;30.50;11.77;;;;;;;8.31;100.00;102234.75;5085346;28;20113;-72
2022/03/15 08:03:48;;;;;;;26.10;11.55;;;;;;;8.37;100.00;102227.06;5088813;28;20417;-74
2022/03/15 08:06:14;;;;;;;28.20;12.95;;;;;;;8.43;100.00;102228.44;5086731;28;20056;-71
2022/03/15 08:08:42;;;;;;;26.92;12.73;;;;;;;8.45;100.00;102218.66;5099092;28;20071;-71
2022/03/15 08:11:09;;;;;;;34.17;14.38;;;;;;;8.51;100.00;102228.31;5097814;28;20056;-74
2022/03/15 08:13:38;;;;;;;28.25;10.77;;;;;;;8.55;100.00;102220.94;5079334;28;20420;-73
2022/03/15 08:16:05;;;;;;;21.38;9.68;;;;;;;8.63;100.00;102227.47;5091280;28;20052;-72
2022/03/15 08:18:33;;;;;;;25.88;10.63;;;;;;;8.66;100.00;102213.78;5080736;28;20549;-74
2022/03/15 08:20:59;;;;;;;23.42;10.25;;;;;;;8.75;100.00;102228.25;5078241;28;20044;-72
2022/03/15 08:23:29;;;;;;;25.52;11.20;;;;;;;8.81;100.00;102232.38;5087906;28;20056;-72
2022/03/15 08:25:58;;;;;;;22.88;9.75;;;;;;;8.90;100.00;102223.94;5086925;28;20157;-73
2022/03/15 08:28:26;;;;;;;24.40;9.35;;;;;;;8.96;100.00;102223.38;5080180;28;20048;-74
2022/03/15 08:30:54;;;;;;;23.70;9.32;;;;;;;9.04;100.00;102224.38;5082950;28;20498;-73
2022/03/15 08:33:22;;;;;;;22.70;10.02;;;;;;;9.11;100.00;102222.63;5079950;28;20148;-71
2022/03/15 08:35:49;;;;;;;22.90;10.38;;;;;;;9.17;100.00;102218.44;5087965;28;20048;-74
2022/03/15 08:38:16;;;;;;;24.45;9.65;;;;;;;9.22;100.00;102215.41;5083162;28;20481;-68
2022/03/15 08:40:43;;;;;;;23.70;10.10;;;;;;;9.29;100.00;102209.31;5074820;28;20282;-75
2022/03/15 08:43:10;;;;;;;21.20;9.13;;;;;;;9.33;100.00;102210.22;5086766;28;20098;-72
2022/03/15 08:45:37;;;;;;;22.98;9.88;;;;;;;9.35;100.00;102202.38;5087601;28;20044;-72
2022/03/15 08:48:05;;;;;;;27.45;10.48;;;;;;;9.42;100.00;102202.56;5088205;28;20135;-73
2022/03/15 08:50:33;;;;;;;21.00;9.32;;;;;;;9.48;100.00;102192.84;5088207;28;20503;-73
2022/03/15 08:52:59;;;;;;;22.98;10.18;;;;;;;9.52;100.00;102197.31;5087802;28;20123;-74
2022/03/15 08:55:28;;;;;;;24.98;10.05;;;;;;;9.55;100.00;102191.09;5086820;28;20576;-72
2022/03/15 08:57:55;;;;;;;39.45;11.65;;;;;;;9.62;100.00;102199.56;5089365;28;20078;-73
2022/03/15 09:00:28;;;;;;;20.30;8.38;;;;;;;9.66;100.00;102197.69;5089828;28;20683;-71
2022/03/15 09:03:00;;;;;;;25.42;9.30;;;;;;;9.69;100.00;102188.69;5086079;28;20055;-74
2022/03/15 09:05:27;;;;;;;23.52;9.43;;;;;;;9.74;100.00;102182.91;5086433;28;20105;-73
2022/03/15 09:07:53;;;;;;;24.40;9.40;;;;;;;9.84;100.00;102184.31;5089597;28;20090;-72
2022/03/15 09:10:21;;;;;;;21.63;9.85;;;;;;;9.91;100.00;102181.72;5097527;28;20043;-73
2022/03/15 09:12:49;;;;;;;25.95;9.70;;;;;;;9.97;100.00;102181.13;5086795;28;20052;-71
2022/03/15 09:15:16;;;;;;;27.63;10.85;;;;;;;10.02;100.00;102180.03;5087542;28;20062;-70
2022/03/15 09:17:43;;;;;;;22.92;9.05;;;;;;;10.09;100.00;102178.28;5085374;28;20182;-73
2022/03/15 09:20:22;;;;;;;22.95;8.57;;;;;;;10.12;100.00;102177.56;5086940;28;20112;-71
2022/03/15 09:22:49;;;;;;;24.85;8.95;;;;;;;10.19;100.00;102177.72;5082437;28;20056;-72
2022/03/15 09:25:15;;;;;;;23.67;9.68;;;;;;;10.21;100.00;102172.66;5084137;28;20134;-71
2022/03/15 09:27:46;;;;;;;22.42;9.98;;;;;;;10.30;100.00;102173.22;5086584;28;20056;-71
2022/03/15 09:30:13;;;;;;;21.90;9.98;;;;;;;10.37;100.00;102167.84;5083653;28;20058;-73
2022/03/15 09:32:40;;;;;;;25.52;9.25;;;;;;;10.42;100.00;102162.06;5085331;28;20106;-72
2022/03/15 09:35:07;;;;;;;23.55;9.23;;;;;;;10.46;100.00;102160.16;5078759;28;20044;-72
2022/03/15 09:37:34;;;;;;;27.30;9.43;;;;;;;10.49;100.00;102153.09;5082067;28;20134;-71
2022/03/15 09:40:08;;;;;;;25.65;9.13;;;;;;;10.57;100.00;102155.66;5083752;28;20428;-72
2022/03/15 09:42:36;;;;;;;24.70;9.15;;;;;;;10.61;100.00;102161.28;5085298;28;20146;-73
2022/03/15 09:45:04;;;;;;;29.00;8.63;;;;;;;10.63;100.00;102160.91;5079427;28;20076;-71
2022/03/15 09:47:36;;;;;;;25.67;8.70;;;;;;;10.68;100.00;102158.66;5081570;28;20131;-71
2022/03/15 09:50:06;;;;;;;21.17;7.70;;;;;;;10.69;100.00;102146.41;5075990;28;20079;-71
2022/03/15 09:52:34;;;;;;;28.52;6.75;;;;;;;10.74;100.00;102148.91;5077612;28;20051;-72
2022/03/15 09:55:02;;;;;;;28.35;7.80;;;;;;;10.75;100.00;102152.47;5085644;28;20047;-71
2022/03/15 09:57:31;;;;;;;20.73;8.18;;;;;;;10.78;100.00;102149.78;5080315;28;20083;-74
2022/03/15 10:00:01;;;;;;;22.13;9.00;;;;;;;10.82;100.00;102144.28;5086270;28;20067;-75
2022/03/15 10:02:27;;;;;;;17.40;6.68;;;;;;;10.83;100.00;102143.16;5084616;28;20121;-73
2022/03/15 10:05:00;;;;;;;21.50;7.03;;;;;;;10.87;100.00;102142.03;5085698;28;20052;-74
2022/03/15 10:07:26;;;;;;;17.42;7.10;;;;;;;10.90;100.00;102135.00;5090452;28;20480;-72
2022/03/15 10:09:53;;;;;;;16.25;6.60;;;;;;;10.92;100.00;102138.19;5090408;28;20040;-72
2022/03/15 10:12:20;;;;;;;21.65;7.53;;;;;;;10.94;100.00;102131.13;5085954;28;20508;-73
2022/03/15 10:14:48;;;;;;;21.55;6.78;;;;;;;10.91;100.00;102126.31;5086507;28;20159;-73
2022/03/15 10:17:16;;;;;;;18.70;6.68;;;;;;;10.98;100.00;102128.41;5086360;28;20081;-73
2022/03/15 10:19:56;;;;;;;18.52;6.40;;;;;;;10.98;100.00;102120.91;5085833;28;20681;-73
2022/03/15 10:22:25;;;;;;;20.10;7.07;;;;;;;11.05;100.00;102121.06;5082268;28;20053;-71
2022/03/15 10:24:52;;;;;;;15.52;5.95;;;;;;;11.07;100.00;102117.91;5086919;28;20135;-72
2022/03/15 10:27:21;;;;;;;13.82;5.85;;;;;;;11.12;100.00;102123.13;5091232;28;20125;-73
2022/03/15 10:29:49;;;;;;;15.30;6.20;;;;;;;11.15;100.00;102109.38;5097836;28;20446;-71
2022/03/15 10:32:15;;;;;;;19.05;6.05;;;;;;;11.20;100.00;102113.81;5089565;28;20109;-73
2022/03/15 10:34:43;;;;;;;19.27;6.20;;;;;;;11.28;100.00;102113.56;5090526;28;20052;-73
2022/03/15 10:37:11;;;;;;;16.30;6.43;;;;;;;11.37;100.00;102113.34;5090580;28;20465;-71
2022/03/15 10:39:39;;;;;;;13.63;5.55;;;;;;;11.45;99.87;102106.72;5090120;28;20063;-72
2022/03/15 10:42:08;;;;;;;15.60;5.80;;;;;;;11.50;99.45;102109.19;5089065;28;20513;-71
2022/03/15 10:44:40;;;;;;;16.42;6.68;;;;;;;11.59;98.78;102096.69;5089890;28;20131;-72
2022/03/15 10:47:13;;;;;;;20.35;6.03;;;;;;;11.67;97.77;102098.44;5089278;28;20079;-72
2022/03/15 10:49:59;;;;;;;18.05;5.32;;;;;;;11.75;96.08;102097.34;5088749;28;20043;-71
2022/03/15 10:52:34;;;;;;;18.67;5.93;;;;;;;11.82;93.72;102091.16;5089927;28;20043;-71
2022/03/15 10:55:19;;;;;;;16.00;5.72;;;;;;;11.89;92.69;102097.59;5089206;28;20478;-73
2022/03/15 10:57:58;;;;;;;16.55;5.63;;;;;;;11.95;91.38;102092.53;5088467;28;20474;-73
2022/03/15 11:00:30;;;;;;;15.93;6.15;;;;;;;12.02;90.12;102095.41;5085129;28;20453;-71
2022/03/15 11:02:58;;;;;;;13.85;5.55;;;;;;;12.10;89.20;102095.16;5089897;28;20052;-72
2022/03/15 11:05:29;;;;;;;15.88;5.53;;;;;;;12.19;88.70;102083.78;5083422;28;20417;-72
2022/03/15 11:07:56;;;;;;;15.88;5.15;;;;;;;12.21;88.40;102078.63;5095779;28;20115;-71
2022/03/15 11:10:23;;;;;;;20.08;5.30;;;;;;;12.28;87.85;102073.16;5086934;28;21674;-74
2022/03/15 11:13:02;;;;;;;13.82;5.28;;;;;;;12.35;86.79;102070.50;5077390;28;20062;-71